createdAt,value
2022-08-28T00:01:08.145Z,9.90
2022-08-28T00:03:56.197Z,10.50
2022-08-28T00:06:44.459Z,9.70
2022-08-28T00:09:33.056Z,10.70
2022-08-28T00:12:20.883Z,10.10
2022-08-28T00:15:14.727Z,10.60
2022-08-28T00:18:04.180Z,10.70
2022-08-28T00:20:53.193Z,10.00
2022-08-28T00:23:43.540Z,10.30
2022-08-28T00:26:50.030Z,10.30
2022-08-28T00:29:38.676Z,9.10
2022-08-28T00:32:27.206Z,10.10
2022-08-28T00:35:17.918Z,9.20
2022-08-28T00:38:06.229Z,10.00
2022-08-28T00:41:03.640Z,9.40
2022-08-28T00:44:06.810Z,9.10
2022-08-28T00:46:57.104Z,10.10
2022-08-28T00:49:53.295Z,9.00
2022-08-28T00:52:41.853Z,9.10
2022-08-28T00:55:30.627Z,9.30
2022-08-28T00:58:20.332Z,9.10
2022-08-28T01:01:08.116Z,9.80
2022-08-28T01:03:56.089Z,9.10
2022-08-28T01:06:53.690Z,9.60
2022-08-28T01:09:51.083Z,9.50
2022-08-28T01:12:39.761Z,9.00
2022-08-28T01:15:35.248Z,9.80
2022-08-28T01:18:25.294Z,9.40
2022-08-28T01:21:44.631Z,10.60
2022-08-28T01:24:33.950Z,9.80
2022-08-28T01:27:23.557Z,9.40
2022-08-28T01:30:17.550Z,10.30
2022-08-28T01:33:06.186Z,10.10
2022-08-28T01:35:54.064Z,9.60
2022-08-28T01:38:45.475Z,10.30
2022-08-28T01:41:34.180Z,9.30
2022-08-28T01:44:26.073Z,9.60
2022-08-28T01:47:13.893Z,9.30
2022-08-28T01:50:01.844Z,9.10
2022-08-28T01:52:49.804Z,10.20
2022-08-28T01:55:37.719Z,9.10
2022-08-28T01:58:28.043Z,9.20
2022-08-28T02:01:22.100Z,9.70
2022-08-28T02:04:11.209Z,8.60
2022-08-28T02:06:59.517Z,9.30
2022-08-28T02:09:47.098Z,10.00
2022-08-28T02:12:36.105Z,9.00
2022-08-28T02:15:26.157Z,9.80
2022-08-28T02:18:14.699Z,8.90
2022-08-28T02:21:02.669Z,9.30
2022-08-28T02:23:50.802Z,9.70
2022-08-28T02:26:38.873Z,10.00
2022-08-28T02:29:27.406Z,9.30
2022-08-28T02:32:17.439Z,9.40
2022-08-28T02:35:12.024Z,9.70
2022-08-28T02:38:01.202Z,9.80
2022-08-28T02:40:50.203Z,9.60
2022-08-28T02:43:39.489Z,9.50
2022-08-28T02:46:27.779Z,9.50
2022-08-28T02:49:15.640Z,9.70
2022-08-28T02:52:06.933Z,9.50
2022-08-28T02:54:55.105Z,9.50
2022-08-28T02:57:43.923Z,9.40
2022-08-28T03:00:31.466Z,9.20
2022-08-28T03:03:20.487Z,9.70
2022-08-28T03:06:12.270Z,9.00
2022-08-28T03:09:00.397Z,9.10
2022-08-28T03:11:48.253Z,8.80
2022-08-28T03:14:36.589Z,8.80
2022-08-28T03:17:24.438Z,8.80
2022-08-28T03:20:15.079Z,9.10
2022-08-28T03:23:29.375Z,9.70
2022-08-28T03:26:21.446Z,9.50
2022-08-28T03:29:09.367Z,8.80
2022-08-28T03:31:57.956Z,8.80
2022-08-28T03:34:45.893Z,9.20
2022-08-28T03:37:33.768Z,9.40
2022-08-28T03:40:22.213Z,8.90
2022-08-28T03:43:21.591Z,9.00
2022-08-28T03:46:15.415Z,9.10
2022-08-28T03:49:05.300Z,8.70
2022-08-28T03:51:53.423Z,8.50
2022-08-28T03:54:41.331Z,8.30
2022-08-28T03:57:30.401Z,8.20
2022-08-28T04:00:20.547Z,9.20
2022-08-28T04:03:09.245Z,8.40
2022-08-28T04:05:57.252Z,8.90
2022-08-28T04:08:45.475Z,10.00
2022-08-28T04:11:42.536Z,9.90
2022-08-28T04:14:30.664Z,10.50
2022-08-28T04:17:18.457Z,10.40
2022-08-28T04:20:09.051Z,9.70
2022-08-28T04:22:57.190Z,9.50
2022-08-28T04:25:48.385Z,9.00
2022-08-28T04:28:39.279Z,9.00
2022-08-28T04:31:31.740Z,11.90
2022-08-28T04:34:20.291Z,10.30
2022-08-28T04:37:08.328Z,10.80
2022-08-28T04:39:56.256Z,10.10
2022-08-28T04:42:45.298Z,8.90
2022-08-28T04:45:34.051Z,9.70
2022-08-28T04:48:22.330Z,9.70
2022-08-28T04:51:14.269Z,9.90
2022-08-28T04:54:03.671Z,8.90
2022-08-28T04:56:52.147Z,9.10
2022-08-28T04:59:42.134Z,9.10
2022-08-28T05:02:30.302Z,8.60
2022-08-28T05:05:19.331Z,8.30
2022-08-28T05:08:10.134Z,8.60
2022-08-28T05:10:59.570Z,8.10
2022-08-28T05:13:49.288Z,8.40
2022-08-28T05:16:50.292Z,8.30
2022-08-28T05:19:38.121Z,8.60
2022-08-28T05:22:29.080Z,8.40
2022-08-28T05:25:17.109Z,8.80
2022-08-28T05:28:06.164Z,8.80
2022-08-28T05:31:10.666Z,9.70
2022-08-28T05:34:04.722Z,9.50
2022-08-28T05:36:55.765Z,9.10
2022-08-28T05:39:43.512Z,9.10
2022-08-28T05:42:33.109Z,10.70
2022-08-28T05:45:24.086Z,9.70
2022-08-28T05:48:12.202Z,10.60
2022-08-28T05:51:17.725Z,8.90
2022-08-28T05:54:08.138Z,8.70
2022-08-28T05:56:56.162Z,9.30
2022-08-28T05:59:44.674Z,9.40
2022-08-28T06:02:35.213Z,15.50
2022-08-28T06:05:23.229Z,9.10
2022-08-28T06:08:11.329Z,9.80
2022-08-28T06:11:02.366Z,9.80
2022-08-28T06:13:50.696Z,8.50
2022-08-28T06:16:42.008Z,7.70
2022-08-28T06:19:33.368Z,9.40
2022-08-28T06:22:21.318Z,8.60
2022-08-28T06:25:12.327Z,8.10
2022-08-28T06:28:00.068Z,8.00
2022-08-28T06:31:18.059Z,7.80
2022-08-28T06:33:59.575Z,29.30
2022-08-28T06:36:53.164Z,11.80
2022-08-28T06:39:41.662Z,7.70
2022-08-28T06:42:31.523Z,10.30
2022-08-28T06:45:19.611Z,8.00
2022-08-28T06:48:09.177Z,7.00
2022-08-28T06:51:02.084Z,6.90
2022-08-28T06:53:50.282Z,6.00
2022-08-28T06:56:41.225Z,6.10
2022-08-28T06:59:29.298Z,5.70
2022-08-28T07:02:17.498Z,6.50
2022-08-28T07:05:08.678Z,5.90
2022-08-28T07:07:56.685Z,5.60
2022-08-28T07:10:44.631Z,5.50
2022-08-28T07:13:33.939Z,5.90
2022-08-28T07:16:32.011Z,5.30
2022-08-28T07:19:20.213Z,5.40
2022-08-28T07:22:08.019Z,13.90
2022-08-28T07:24:57.993Z,7.40
2022-08-28T07:27:45.855Z,5.80
2022-08-28T07:30:36.407Z,7.00
2022-08-28T07:33:25.068Z,4.90
2022-08-28T07:36:29.927Z,5.80
2022-08-28T07:39:18.639Z,6.10
2022-08-28T07:42:06.421Z,5.80
2022-08-28T07:44:55.106Z,6.30
2022-08-28T07:47:42.756Z,5.50
2022-08-28T07:50:30.752Z,5.70
2022-08-28T07:53:18.740Z,5.20
2022-08-28T07:56:07.155Z,5.10
2022-08-28T07:58:56.379Z,6.20
2022-08-28T08:01:46.783Z,6.00
2022-08-28T08:04:35.527Z,5.90
2022-08-28T08:07:23.727Z,5.40
2022-08-28T08:10:15.076Z,5.60
2022-08-28T08:13:08.037Z,5.60
2022-08-28T08:16:12.710Z,6.00
2022-08-28T08:19:01.901Z,7.40
2022-08-28T08:21:54.529Z,10.80
2022-08-28T08:24:42.985Z,6.90
2022-08-28T08:27:38.781Z,5.80
2022-08-28T08:30:29.082Z,6.40
2022-08-28T08:33:17.057Z,7.70
2022-08-28T08:36:11.393Z,5.90
2022-08-28T08:39:00.612Z,6.00
2022-08-28T08:41:54.767Z,5.60
2022-08-28T08:44:48.546Z,5.90
2022-08-28T08:47:52.456Z,6.10
2022-08-28T08:50:42.022Z,5.60
2022-08-28T08:53:55.143Z,6.00
2022-08-28T08:56:45.130Z,6.20
2022-08-28T08:59:38.523Z,6.60
2022-08-28T09:02:34.639Z,6.20
2022-08-28T09:05:39.895Z,5.70
2022-08-28T09:08:39.559Z,5.90
2022-08-28T09:12:04.943Z,6.50
2022-08-28T09:14:58.599Z,5.50
2022-08-28T09:18:22.437Z,5.80
2022-08-28T09:21:10.115Z,5.90
2022-08-28T09:24:05.587Z,5.30
2022-08-28T09:27:14.219Z,5.40
2022-08-28T09:30:09.052Z,5.30
2022-08-28T09:33:01.159Z,5.10
2022-08-28T09:35:49.659Z,5.30
2022-08-28T09:38:39.257Z,5.50
2022-08-28T09:41:45.246Z,5.10
2022-08-28T09:44:33.726Z,5.30
2022-08-28T09:47:42.855Z,5.30
2022-08-28T09:50:43.623Z,5.20
2022-08-28T09:53:38.601Z,5.20
2022-08-28T09:56:39.931Z,5.20
2022-08-28T09:59:29.716Z,5.50
2022-08-28T10:02:58.900Z,5.20
2022-08-28T10:06:03.933Z,5.20
2022-08-28T10:09:15.644Z,4.90
2022-08-28T10:12:55.011Z,5.80
2022-08-28T10:16:03.639Z,5.50
2022-08-28T10:19:12.345Z,5.00
2022-08-28T10:22:33.659Z,5.10
2022-08-28T10:26:10.270Z,5.10
2022-08-28T10:29:16.960Z,5.70
2022-08-28T10:32:19.662Z,5.80
2022-08-28T10:35:26.008Z,5.70
2022-08-28T10:38:53.108Z,7.10
2022-08-28T10:41:54.799Z,6.00
2022-08-28T10:45:06.364Z,5.60
2022-08-28T10:48:05.392Z,6.20
2022-08-28T10:51:02.641Z,6.00
2022-08-28T10:54:00.831Z,5.80
2022-08-28T10:57:03.619Z,5.70
2022-08-28T10:59:54.455Z,5.90
2022-08-28T11:02:48.723Z,6.30
2022-08-28T11:05:53.690Z,6.10
2022-08-28T11:08:42.091Z,7.00
2022-08-28T11:11:49.273Z,6.30
2022-08-28T11:14:48.513Z,6.90
2022-08-28T11:17:41.783Z,7.00
2022-08-28T11:20:31.006Z,7.80
2022-08-28T11:23:49.778Z,7.80
2022-08-28T11:27:36.576Z,8.30
2022-08-28T11:30:36.459Z,7.50
2022-08-28T11:33:48.622Z,7.90
2022-08-28T11:36:36.487Z,7.70
2022-08-28T11:39:24.619Z,8.50
2022-08-28T11:42:14.123Z,7.50
2022-08-28T11:45:02.116Z,8.40
2022-08-28T11:47:53.043Z,6.80
2022-08-28T11:50:57.457Z,6.80
2022-08-28T11:54:03.096Z,7.10
2022-08-28T11:57:32.714Z,6.90
2022-08-28T12:01:03.878Z,6.90
2022-08-28T12:04:08.444Z,6.20
2022-08-28T12:07:11.711Z,6.40
2022-08-28T12:10:04.237Z,6.40
2022-08-28T12:12:59.942Z,6.20
2022-08-28T12:16:05.238Z,5.90
2022-08-28T12:18:52.889Z,5.70
2022-08-28T12:21:42.867Z,5.60
2022-08-28T12:24:31.077Z,6.40
2022-08-28T12:27:19.596Z,5.50
2022-08-28T12:30:08.309Z,5.40
2022-08-28T12:33:43.029Z,5.90
2022-08-28T12:36:31.568Z,5.50
2022-08-28T12:39:19.819Z,5.80
2022-08-28T12:42:19.394Z,6.20
2022-08-28T12:45:10.525Z,5.70
2022-08-28T12:48:13.404Z,5.70
2022-08-28T12:51:05.993Z,6.10
2022-08-28T12:54:06.929Z,5.10
2022-08-28T12:56:55.050Z,5.70
2022-08-28T12:59:50.587Z,6.00
2022-08-28T13:02:42.035Z,6.00
2022-08-28T13:05:40.487Z,5.30
2022-08-28T13:08:33.961Z,5.30
2022-08-28T13:11:24.344Z,5.50
2022-08-28T13:14:14.898Z,5.80
2022-08-28T13:17:04.076Z,5.20
2022-08-28T13:20:06.147Z,6.00
2022-08-28T13:23:00.930Z,5.50
2022-08-28T13:26:06.977Z,5.20
2022-08-28T13:28:56.883Z,5.20
2022-08-28T13:31:44.907Z,5.30
2022-08-28T13:34:47.988Z,5.10
2022-08-28T13:38:00.956Z,4.80
2022-08-28T13:40:59.512Z,4.90
2022-08-28T13:43:47.684Z,4.80
2022-08-28T13:46:35.993Z,5.30
2022-08-28T13:49:27.853Z,4.90
2022-08-28T13:52:17.849Z,5.00
2022-08-28T13:55:07.581Z,5.00
2022-08-28T13:57:58.379Z,4.50
2022-08-28T14:00:50.452Z,4.50
2022-08-28T14:03:39.307Z,4.50
2022-08-28T14:06:31.638Z,5.60
2022-08-28T14:09:20.225Z,4.50
2022-08-28T14:12:12.142Z,4.40
2022-08-28T14:15:01.317Z,4.00
2022-08-28T14:17:49.299Z,4.50
2022-08-28T14:20:39.015Z,4.00
2022-08-28T14:23:26.952Z,3.90
2022-08-28T14:26:14.716Z,3.90
2022-08-28T14:29:06.291Z,3.70
2022-08-28T14:31:54.411Z,3.80
2022-08-28T14:34:44.802Z,3.30
2022-08-28T14:37:33.490Z,4.00
2022-08-28T14:40:21.052Z,3.70
2022-08-28T14:43:10.721Z,3.70
2022-08-28T14:45:58.233Z,3.60
2022-08-28T14:48:46.269Z,3.50
2022-08-28T14:51:38.149Z,3.70
2022-08-28T14:54:26.443Z,2.90
2022-08-28T14:57:15.239Z,3.20
2022-08-28T15:00:05.307Z,2.90
2022-08-28T15:02:59.616Z,3.00
2022-08-28T15:05:48.203Z,2.80
2022-08-28T15:08:37.841Z,2.70
2022-08-28T15:11:28.978Z,2.80
2022-08-28T15:14:17.381Z,2.90
2022-08-28T15:17:06.106Z,2.90
2022-08-28T15:19:54.009Z,3.30
2022-08-28T15:22:42.433Z,2.80
2022-08-28T15:25:30.601Z,2.60
2022-08-28T15:28:20.764Z,3.70
2022-08-28T15:31:10.924Z,3.20
2022-08-28T15:34:13.190Z,3.10
2022-08-28T15:37:08.771Z,3.10
2022-08-28T15:40:28.769Z,2.90
2022-08-28T15:43:19.484Z,2.70
2022-08-28T15:46:14.252Z,3.20
2022-08-28T15:49:09.395Z,3.20
2022-08-28T15:51:59.276Z,3.10
2022-08-28T15:54:49.835Z,3.30
2022-08-28T15:57:37.921Z,3.40
2022-08-28T16:00:26.076Z,3.40
2022-08-28T16:03:14.233Z,3.60
2022-08-28T16:06:06.267Z,3.60
2022-08-28T16:08:53.921Z,3.40
2022-08-28T16:11:44.061Z,3.70
2022-08-28T16:14:33.372Z,3.60
2022-08-28T16:17:21.648Z,3.30
2022-08-28T16:20:12.830Z,3.40
2022-08-28T16:23:01.131Z,3.40
2022-08-28T16:25:49.685Z,3.90
2022-08-28T16:28:38.823Z,3.40
2022-08-28T16:31:26.846Z,3.50
2022-08-28T16:34:15.800Z,3.80
2022-08-28T16:37:08.011Z,3.40
2022-08-28T16:39:56.530Z,3.60
2022-08-28T16:42:51.420Z,3.40
2022-08-28T16:45:46.382Z,4.00
2022-08-28T16:48:34.438Z,3.90
2022-08-28T16:51:27.074Z,4.00
2022-08-28T16:54:18.274Z,3.90
2022-08-28T16:57:06.012Z,4.20
2022-08-28T17:00:00.515Z,3.70
2022-08-28T17:02:49.379Z,4.70
2022-08-28T17:05:37.087Z,3.90
2022-08-28T17:08:26.550Z,4.10
2022-08-28T17:11:15.243Z,3.80
2022-08-28T17:14:03.483Z,3.70
2022-08-28T17:16:52.672Z,4.00
2022-08-28T17:19:40.397Z,4.20
2022-08-28T17:22:32.155Z,4.20
2022-08-28T17:25:20.513Z,4.20
2022-08-28T17:28:08.657Z,3.90
2022-08-28T17:30:57.740Z,3.90
2022-08-28T17:33:46.076Z,4.70
2022-08-28T17:36:36.430Z,4.40
2022-08-28T17:39:25.610Z,4.30
2022-08-28T17:42:14.047Z,4.20
2022-08-28T17:45:05.497Z,4.50
2022-08-28T17:47:53.740Z,4.30
2022-08-28T17:50:41.500Z,4.30
2022-08-28T17:53:30.152Z,4.40
2022-08-28T17:56:18.551Z,4.20
2022-08-28T17:59:09.375Z,4.50
2022-08-28T18:01:57.158Z,4.40
2022-08-28T18:04:45.202Z,4.90
2022-08-28T18:07:33.407Z,4.40
2022-08-28T18:10:21.911Z,4.70
2022-08-28T18:13:09.595Z,4.30
2022-08-28T18:15:57.894Z,4.30
2022-08-28T18:18:45.573Z,4.30
2022-08-28T18:21:33.807Z,4.30
2022-08-28T18:24:22.044Z,4.30
2022-08-28T18:27:11.134Z,4.50
2022-08-28T18:30:02.750Z,4.20
2022-08-28T18:32:54.779Z,4.40
2022-08-28T18:35:50.741Z,4.50
2022-08-28T18:38:45.235Z,4.00
2022-08-28T18:41:43.574Z,4.70
2022-08-28T18:44:33.291Z,4.20
2022-08-28T18:47:30.279Z,4.50
2022-08-28T18:50:22.062Z,4.20
2022-08-28T18:53:10.326Z,4.40
2022-08-28T18:56:02.691Z,4.50
2022-08-28T18:58:53.527Z,4.60
2022-08-28T19:01:43.945Z,4.10
2022-08-28T19:04:33.921Z,4.80
2022-08-28T19:07:25.839Z,4.50
2022-08-28T19:10:32.029Z,6.10
2022-08-28T19:13:23.718Z,4.10
2022-08-28T19:16:20.699Z,5.00
2022-08-28T19:19:12.210Z,4.10
2022-08-28T19:22:01.164Z,4.20
2022-08-28T19:24:56.310Z,4.00
2022-08-28T19:27:49.787Z,4.30
2022-08-28T19:30:47.433Z,4.20
2022-08-28T19:33:42.794Z,4.10
2022-08-28T19:36:31.029Z,4.00
2022-08-28T19:39:23.139Z,4.40
2022-08-28T19:42:11.036Z,4.20
2022-08-28T19:45:00.185Z,4.20
2022-08-28T19:47:48.183Z,4.60
2022-08-28T19:50:38.861Z,5.00
2022-08-28T19:53:27.959Z,4.10
2022-08-28T19:56:19.234Z,3.90
2022-08-28T19:59:15.197Z,4.80
2022-08-28T20:02:06.891Z,4.70
2022-08-28T20:04:58.207Z,4.90
2022-08-28T20:07:45.997Z,4.30
2022-08-28T20:10:34.043Z,5.60
2022-08-28T20:13:22.448Z,4.80
2022-08-28T20:16:11.135Z,4.70
2022-08-28T20:18:59.330Z,4.50
2022-08-28T20:21:50.133Z,4.90
2022-08-28T20:24:39.658Z,4.70
2022-08-28T20:27:28.228Z,4.80
2022-08-28T20:30:16.752Z,4.80
2022-08-28T20:33:07.725Z,5.30
2022-08-28T20:36:04.738Z,5.20
2022-08-28T20:38:52.819Z,5.00
2022-08-28T20:41:46.086Z,5.10
2022-08-28T20:44:34.327Z,5.40
2022-08-28T20:47:22.377Z,4.80
2022-08-28T20:50:14.123Z,5.50
2022-08-28T20:53:04.008Z,5.40
2022-08-28T20:55:56.230Z,4.90
2022-08-28T20:58:44.676Z,5.50
2022-08-28T21:01:34.135Z,5.40
2022-08-28T21:04:23.943Z,4.90
2022-08-28T21:07:15.733Z,5.30
2022-08-28T21:10:07.751Z,5.00
2022-08-28T21:12:56.249Z,4.30
2022-08-28T21:15:44.076Z,5.30
2022-08-28T21:18:32.028Z,4.60
2022-08-28T21:21:19.894Z,4.60
2022-08-28T21:24:13.660Z,5.30
2022-08-28T21:27:02.596Z,4.90
2022-08-28T21:29:51.704Z,5.40
2022-08-28T21:32:39.898Z,4.60
2022-08-28T21:35:28.861Z,4.60
2022-08-28T21:38:16.616Z,4.30
2022-08-28T21:41:12.550Z,4.80
2022-08-28T21:44:00.973Z,4.70
2022-08-28T21:46:49.143Z,4.80
2022-08-28T21:49:37.733Z,4.70
2022-08-28T21:52:30.802Z,4.70
2022-08-28T21:55:18.682Z,4.70
2022-08-28T21:58:06.904Z,4.80
2022-08-28T22:00:57.454Z,4.30
2022-08-28T22:03:45.550Z,4.20
2022-08-28T22:06:34.012Z,4.30
2022-08-28T22:09:22.181Z,4.20
2022-08-28T22:12:10.914Z,4.00
2022-08-28T22:14:58.736Z,4.30
2022-08-28T22:17:46.678Z,4.00
2022-08-28T22:20:37.065Z,4.00
2022-08-28T22:23:26.288Z,3.90
2022-08-28T22:26:19.511Z,3.90
2022-08-28T22:29:08.283Z,4.10
2022-08-28T22:31:56.074Z,4.30
2022-08-28T22:34:46.440Z,4.10
2022-08-28T22:37:36.070Z,4.10
2022-08-28T22:40:24.581Z,3.30
2022-08-28T22:43:12.972Z,4.50
2022-08-28T22:46:01.595Z,3.40
2022-08-28T22:48:51.408Z,3.90
2022-08-28T22:51:39.669Z,3.60
2022-08-28T22:54:27.838Z,3.70
2022-08-28T22:57:15.940Z,4.10
2022-08-28T23:00:11.730Z,3.70
2022-08-28T23:03:00.353Z,4.00
2022-08-28T23:05:48.764Z,4.40
2022-08-28T23:08:37.010Z,3.70
2022-08-28T23:11:28.134Z,4.30
2022-08-28T23:14:15.994Z,3.70
2022-08-28T23:17:03.877Z,4.40
2022-08-28T23:19:52.860Z,3.70
2022-08-28T23:22:40.908Z,3.90
2022-08-28T23:25:28.961Z,4.00
2022-08-28T23:28:18.442Z,4.60
2022-08-28T23:31:07.634Z,4.50
2022-08-28T23:33:55.836Z,4.20
2022-08-28T23:36:43.883Z,4.40
2022-08-28T23:39:31.741Z,3.60
2022-08-28T23:42:19.863Z,4.50
2022-08-28T23:45:09.547Z,3.90
2022-08-28T23:47:57.885Z,4.00
2022-08-28T23:50:48.117Z,3.90
2022-08-28T23:53:36.006Z,3.70
2022-08-28T23:56:23.952Z,4.40
2022-08-28T23:59:16.304Z,4.40
